sensor_id;sensor_type;location;lat;lon;timestamp;temperature;humidity
30053;DHT22;17074;52.478;13.534;2022-07-09T00:00:06;16.60;99.90
30053;DHT22;17074;52.478;13.534;2022-07-09T00:02:32;16.60;99.90
30053;DHT22;17074;52.478;13.534;2022-07-09T00:05:00;16.60;99.90
30053;DHT22;17074;52.478;13.534;2022-07-09T00:07:25;16.60;99.90
30053;DHT22;17074;52.478;13.534;2022-07-09T00:09:52;16.50;99.90
30053;DHT22;17074;52.478;13.534;2022-07-09T00:12:18;16.50;99.90
30053;DHT22;17074;52.478;13.534;2022-07-09T00:14:43;16.40;99.90
30053;DHT22;17074;52.478;13.534;2022-07-09T00:17:09;16.40;99.90
30053;DHT22;17074;52.478;13.534;2022-07-09T00:19:34;16.40;99.90
30053;DHT22;17074;52.478;13.534;2022-07-09T00:22:00;16.30;99.90
30053;DHT22;17074;52.478;13.534;2022-07-09T00:24:26;16.30;99.90
30053;DHT22;17074;52.478;13.534;2022-07-09T00:26:52;16.20;99.90
30053;DHT22;17074;52.478;13.534;2022-07-09T00:29:17;16.20;99.90
30053;DHT22;17074;52.478;13.534;2022-07-09T00:31:43;16.20;99.90
30053;DHT22;17074;52.478;13.534;2022-07-09T00:34:11;16.20;99.90
30053;DHT22;17074;52.478;13.534;2022-07-09T00:36:37;16.20;99.90
30053;DHT22;17074;52.478;13.534;2022-07-09T00:39:03;16.20;99.90
30053;DHT22;17074;52.478;13.534;2022-07-09T00:41:28;16.10;99.90
30053;DHT22;17074;52.478;13.534;2022-07-09T00:43:54;16.10;99.90
30053;DHT22;17074;52.478;13.534;2022-07-09T00:46:20;16.10;99.90
30053;DHT22;17074;52.478;13.534;2022-07-09T00:48:46;16.10;99.90
30053;DHT22;17074;52.478;13.534;2022-07-09T00:51:12;16.10;99.90
30053;DHT22;17074;52.478;13.534;2022-07-09T00:53:39;16.10;99.90
30053;DHT22;17074;52.478;13.534;2022-07-09T00:56:05;16.00;99.90
30053;DHT22;17074;52.478;13.534;2022-07-09T00:58:31;16.00;99.90
30053;DHT22;17074;52.478;13.534;2022-07-09T01:00:57;16.00;99.90
30053;DHT22;17074;52.478;13.534;2022-07-09T01:03:23;15.90;99.90
30053;DHT22;17074;52.478;13.534;2022-07-09T01:05:49;15.80;99.90
30053;DHT22;17074;52.478;13.534;2022-07-09T01:08:15;15.80;99.90
30053;DHT22;17074;52.478;13.534;2022-07-09T01:10:41;15.80;99.90
30053;DHT22;17074;52.478;13.534;2022-07-09T01:16:34;15.70;99.90
30053;DHT22;17074;52.478;13.534;2022-07-09T01:19:00;15.70;99.90
30053;DHT22;17074;52.478;13.534;2022-07-09T01:21:26;15.60;99.90
30053;DHT22;17074;52.478;13.534;2022-07-09T01:23:52;15.60;99.90
30053;DHT22;17074;52.478;13.534;2022-07-09T01:26:17;15.60;99.90
30053;DHT22;17074;52.478;13.534;2022-07-09T01:28:47;15.60;99.90
30053;DHT22;17074;52.478;13.534;2022-07-09T01:31:13;15.60;99.90
30053;DHT22;17074;52.478;13.534;2022-07-09T01:33:39;15.50;99.90
30053;DHT22;17074;52.478;13.534;2022-07-09T01:36:05;15.50;99.90
30053;DHT22;17074;52.478;13.534;2022-07-09T01:38:31;15.50;99.90
30053;DHT22;17074;52.478;13.534;2022-07-09T01:40:57;15.40;99.90
30053;DHT22;17074;52.478;13.534;2022-07-09T01:43:22;15.30;99.90
30053;DHT22;17074;52.478;13.534;2022-07-09T01:49:10;15.30;99.90
30053;DHT22;17074;52.478;13.534;2022-07-09T01:51:35;15.30;99.90
30053;DHT22;17074;52.478;13.534;2022-07-09T01:54:01;15.20;99.90
30053;DHT22;17074;52.478;13.534;2022-07-09T01:56:46;15.20;99.90
30053;DHT22;17074;52.478;13.534;2022-07-09T01:59:11;15.20;99.90
30053;DHT22;17074;52.478;13.534;2022-07-09T02:01:37;15.10;99.90
30053;DHT22;17074;52.478;13.534;2022-07-09T02:04:02;15.10;99.90
30053;DHT22;17074;52.478;13.534;2022-07-09T02:06:28;15.10;99.90
30053;DHT22;17074;52.478;13.534;2022-07-09T02:08:54;15.00;99.90
30053;DHT22;17074;52.478;13.534;2022-07-09T02:11:19;15.00;99.90
30053;DHT22;17074;52.478;13.534;2022-07-09T02:13:45;15.00;99.90
30053;DHT22;17074;52.478;13.534;2022-07-09T02:16:10;14.90;99.90
30053;DHT22;17074;52.478;13.534;2022-07-09T02:18:36;15.00;99.90
30053;DHT22;17074;52.478;13.534;2022-07-09T02:21:02;14.90;99.90
30053;DHT22;17074;52.478;13.534;2022-07-09T02:23:27;14.90;99.90
30053;DHT22;17074;52.478;13.534;2022-07-09T02:25:53;14.80;99.90
30053;DHT22;17074;52.478;13.534;2022-07-09T02:28:19;14.80;99.90
30053;DHT22;17074;52.478;13.534;2022-07-09T02:30:44;14.80;99.90
30053;DHT22;17074;52.478;13.534;2022-07-09T02:33:10;14.70;99.90
30053;DHT22;17074;52.478;13.534;2022-07-09T02:35:35;14.70;99.90
30053;DHT22;17074;52.478;13.534;2022-07-09T02:38:01;14.70;99.90
30053;DHT22;17074;52.478;13.534;2022-07-09T02:40:26;14.70;99.90
30053;DHT22;17074;52.478;13.534;2022-07-09T02:42:52;14.70;99.90
30053;DHT22;17074;52.478;13.534;2022-07-09T02:45:18;14.70;99.90
30053;DHT22;17074;52.478;13.534;2022-07-09T02:47:43;14.60;99.90
30053;DHT22;17074;52.478;13.534;2022-07-09T02:50:09;14.60;99.90
30053;DHT22;17074;52.478;13.534;2022-07-09T02:52:35;14.70;99.90
30053;DHT22;17074;52.478;13.534;2022-07-09T02:55:00;14.70;99.90
30053;DHT22;17074;52.478;13.534;2022-07-09T02:57:26;14.80;99.90
30053;DHT22;17074;52.478;13.534;2022-07-09T02:59:51;14.80;99.90
30053;DHT22;17074;52.478;13.534;2022-07-09T03:02:17;15.00;99.90
30053;DHT22;17074;52.478;13.534;2022-07-09T03:04:42;15.00;99.90
30053;DHT22;17074;52.478;13.534;2022-07-09T03:07:08;15.10;99.90
30053;DHT22;17074;52.478;13.534;2022-07-09T03:09:34;15.10;99.90
30053;DHT22;17074;52.478;13.534;2022-07-09T03:11:59;15.20;99.90
30053;DHT22;17074;52.478;13.534;2022-07-09T03:14:25;15.20;99.90
30053;DHT22;17074;52.478;13.534;2022-07-09T03:16:50;15.20;99.90
30053;DHT22;17074;52.478;13.534;2022-07-09T03:19:16;15.20;99.90
30053;DHT22;17074;52.478;13.534;2022-07-09T03:21:42;15.30;99.90
30053;DHT22;17074;52.478;13.534;2022-07-09T03:24:07;15.30;99.90
30053;DHT22;17074;52.478;13.534;2022-07-09T03:26:34;15.30;99.90
30053;DHT22;17074;52.478;13.534;2022-07-09T03:29:00;15.40;99.90
30053;DHT22;17074;52.478;13.534;2022-07-09T03:31:25;15.40;99.90
30053;DHT22;17074;52.478;13.534;2022-07-09T03:33:51;15.40;99.90
30053;DHT22;17074;52.478;13.534;2022-07-09T03:36:19;15.40;99.90
30053;DHT22;17074;52.478;13.534;2022-07-09T03:38:44;15.40;99.90
30053;DHT22;17074;52.478;13.534;2022-07-09T03:41:10;15.30;99.90
30053;DHT22;17074;52.478;13.534;2022-07-09T03:43:35;15.40;99.90
30053;DHT22;17074;52.478;13.534;2022-07-09T03:46:01;15.40;99.90
30053;DHT22;17074;52.478;13.534;2022-07-09T03:48:27;15.40;99.90
30053;DHT22;17074;52.478;13.534;2022-07-09T03:50:52;15.40;99.90
30053;DHT22;17074;52.478;13.534;2022-07-09T03:53:18;15.50;99.90
30053;DHT22;17074;52.478;13.534;2022-07-09T03:55:43;15.60;99.90
30053;DHT22;17074;52.478;13.534;2022-07-09T03:58:09;15.60;99.90
30053;DHT22;17074;52.478;13.534;2022-07-09T04:00:35;15.70;99.90
30053;DHT22;17074;52.478;13.534;2022-07-09T04:03:00;15.70;99.90
30053;DHT22;17074;52.478;13.534;2022-07-09T04:05:26;15.70;99.90
30053;DHT22;17074;52.478;13.534;2022-07-09T04:11:13;15.90;99.90
30053;DHT22;17074;52.478;13.534;2022-07-09T04:13:39;16.00;99.90
30053;DHT22;17074;52.478;13.534;2022-07-09T04:16:05;16.00;99.90
30053;DHT22;17074;52.478;13.534;2022-07-09T04:18:31;16.10;99.90
30053;DHT22;17074;52.478;13.534;2022-07-09T04:20:59;16.10;99.90
30053;DHT22;17074;52.478;13.534;2022-07-09T04:26:47;16.10;99.90
30053;DHT22;17074;52.478;13.534;2022-07-09T04:29:12;16.10;99.90
30053;DHT22;17074;52.478;13.534;2022-07-09T04:31:38;16.20;99.90
30053;DHT22;17074;52.478;13.534;2022-07-09T04:34:03;16.30;99.90
30053;DHT22;17074;52.478;13.534;2022-07-09T04:36:29;16.40;99.90
30053;DHT22;17074;52.478;13.534;2022-07-09T04:38:55;16.50;99.90
30053;DHT22;17074;52.478;13.534;2022-07-09T04:41:22;16.50;99.90
30053;DHT22;17074;52.478;13.534;2022-07-09T04:43:47;16.50;99.90
30053;DHT22;17074;52.478;13.534;2022-07-09T04:46:13;16.50;99.90
30053;DHT22;17074;52.478;13.534;2022-07-09T04:48:39;16.50;99.90
30053;DHT22;17074;52.478;13.534;2022-07-09T04:51:05;16.50;99.90
30053;DHT22;17074;52.478;13.534;2022-07-09T04:53:30;16.50;99.90
30053;DHT22;17074;52.478;13.534;2022-07-09T04:55:56;16.40;99.90
30053;DHT22;17074;52.478;13.534;2022-07-09T04:58:22;16.50;99.90
30053;DHT22;17074;52.478;13.534;2022-07-09T05:00:47;16.70;99.90
30053;DHT22;17074;52.478;13.534;2022-07-09T05:03:13;16.80;99.90
30053;DHT22;17074;52.478;13.534;2022-07-09T05:05:38;16.80;99.90
30053;DHT22;17074;52.478;13.534;2022-07-09T05:08:04;17.00;99.90
30053;DHT22;17074;52.478;13.534;2022-07-09T05:10:30;17.20;99.90
30053;DHT22;17074;52.478;13.534;2022-07-09T05:12:56;17.10;99.90
30053;DHT22;17074;52.478;13.534;2022-07-09T05:15:21;17.30;99.90
30053;DHT22;17074;52.478;13.534;2022-07-09T05:17:48;17.30;99.90
30053;DHT22;17074;52.478;13.534;2022-07-09T05:20:13;17.30;99.90
30053;DHT22;17074;52.478;13.534;2022-07-09T05:22:39;17.30;99.90
30053;DHT22;17074;52.478;13.534;2022-07-09T05:25:05;17.40;99.90
30053;DHT22;17074;52.478;13.534;2022-07-09T05:27:31;17.40;99.90
30053;DHT22;17074;52.478;13.534;2022-07-09T05:29:57;17.50;99.90
30053;DHT22;17074;52.478;13.534;2022-07-09T05:32:22;17.50;99.90
30053;DHT22;17074;52.478;13.534;2022-07-09T05:34:49;17.60;99.90
30053;DHT22;17074;52.478;13.534;2022-07-09T05:37:14;17.60;99.90
30053;DHT22;17074;52.478;13.534;2022-07-09T05:39:40;17.60;99.90
30053;DHT22;17074;52.478;13.534;2022-07-09T05:42:06;17.80;99.90
30053;DHT22;17074;52.478;13.534;2022-07-09T05:44:32;18.00;99.90
30053;DHT22;17074;52.478;13.534;2022-07-09T05:46:58;18.10;99.90
30053;DHT22;17074;52.478;13.534;2022-07-09T05:49:24;18.20;99.90
30053;DHT22;17074;52.478;13.534;2022-07-09T05:51:51;18.30;99.90
30053;DHT22;17074;52.478;13.534;2022-07-09T05:54:17;18.40;99.90
30053;DHT22;17074;52.478;13.534;2022-07-09T05:56:42;18.50;99.90
30053;DHT22;17074;52.478;13.534;2022-07-09T05:59:08;18.70;99.90
30053;DHT22;17074;52.478;13.534;2022-07-09T06:01:34;18.80;99.90
30053;DHT22;17074;52.478;13.534;2022-07-09T06:04:05;18.90;99.90
30053;DHT22;17074;52.478;13.534;2022-07-09T06:06:31;18.90;99.90
30053;DHT22;17074;52.478;13.534;2022-07-09T06:08:57;18.90;99.90
30053;DHT22;17074;52.478;13.534;2022-07-09T06:11:22;18.90;99.90
30053;DHT22;17074;52.478;13.534;2022-07-09T06:13:48;18.90;99.90
30053;DHT22;17074;52.478;13.534;2022-07-09T06:16:14;18.70;99.90
30053;DHT22;17074;52.478;13.534;2022-07-09T06:18:39;18.70;99.90
30053;DHT22;17074;52.478;13.534;2022-07-09T06:21:05;18.70;99.90
30053;DHT22;17074;52.478;13.534;2022-07-09T06:23:31;18.80;99.90
30053;DHT22;17074;52.478;13.534;2022-07-09T06:25:56;19.00;99.90
30053;DHT22;17074;52.478;13.534;2022-07-09T06:28:22;19.10;99.90
30053;DHT22;17074;52.478;13.534;2022-07-09T06:30:47;19.10;99.90
30053;DHT22;17074;52.478;13.534;2022-07-09T06:33:13;19.10;99.90
30053;DHT22;17074;52.478;13.534;2022-07-09T06:35:39;19.20;99.90
30053;DHT22;17074;52.478;13.534;2022-07-09T06:38:04;19.40;99.90
30053;DHT22;17074;52.478;13.534;2022-07-09T06:40:30;19.50;99.90
30053;DHT22;17074;52.478;13.534;2022-07-09T06:42:56;19.50;99.90
30053;DHT22;17074;52.478;13.534;2022-07-09T06:45:21;19.60;99.90
30053;DHT22;17074;52.478;13.534;2022-07-09T06:47:48;19.80;99.90
30053;DHT22;17074;52.478;13.534;2022-07-09T06:50:14;19.90;99.90
30053;DHT22;17074;52.478;13.534;2022-07-09T06:52:39;19.90;99.90
30053;DHT22;17074;52.478;13.534;2022-07-09T06:55:05;19.90;99.90
30053;DHT22;17074;52.478;13.534;2022-07-09T06:57:31;19.80;99.90
30053;DHT22;17074;52.478;13.534;2022-07-09T06:59:57;19.80;99.90
30053;DHT22;17074;52.478;13.534;2022-07-09T07:02:23;19.90;99.90
30053;DHT22;17074;52.478;13.534;2022-07-09T07:04:48;20.10;99.90
30053;DHT22;17074;52.478;13.534;2022-07-09T07:07:14;20.30;99.90
30053;DHT22;17074;52.478;13.534;2022-07-09T07:09:39;20.50;99.90
30053;DHT22;17074;52.478;13.534;2022-07-09T07:12:05;20.70;99.90
30053;DHT22;17074;52.478;13.534;2022-07-09T07:14:31;20.80;99.90
30053;DHT22;17074;52.478;13.534;2022-07-09T07:16:57;20.90;99.90
30053;DHT22;17074;52.478;13.534;2022-07-09T07:19:22;20.90;99.90
30053;DHT22;17074;52.478;13.534;2022-07-09T07:21:49;21.00;99.90
30053;DHT22;17074;52.478;13.534;2022-07-09T07:24:14;21.00;99.90
30053;DHT22;17074;52.478;13.534;2022-07-09T07:26:40;21.00;99.90
30053;DHT22;17074;52.478;13.534;2022-07-09T07:29:06;21.00;99.90
30053;DHT22;17074;52.478;13.534;2022-07-09T07:31:32;21.00;99.90
30053;DHT22;17074;52.478;13.534;2022-07-09T07:33:58;21.00;99.90
30053;DHT22;17074;52.478;13.534;2022-07-09T07:36:25;21.00;99.90
30053;DHT22;17074;52.478;13.534;2022-07-09T07:38:51;21.00;99.90
30053;DHT22;17074;52.478;13.534;2022-07-09T07:41:16;21.10;99.90
30053;DHT22;17074;52.478;13.534;2022-07-09T07:43:42;21.20;99.90
30053;DHT22;17074;52.478;13.534;2022-07-09T07:46:08;21.40;99.90
30053;DHT22;17074;52.478;13.534;2022-07-09T07:48:33;21.80;99.90
30053;DHT22;17074;52.478;13.534;2022-07-09T07:51:02;22.10;99.90
30053;DHT22;17074;52.478;13.534;2022-07-09T07:53:30;22.40;99.90
30053;DHT22;17074;52.478;13.534;2022-07-09T07:55:56;22.40;99.90
30053;DHT22;17074;52.478;13.534;2022-07-09T07:58:21;22.50;99.90
30053;DHT22;17074;52.478;13.534;2022-07-09T08:00:47;22.40;99.90
30053;DHT22;17074;52.478;13.534;2022-07-09T08:03:13;22.30;99.90
30053;DHT22;17074;52.478;13.534;2022-07-09T08:05:38;22.40;99.90
30053;DHT22;17074;52.478;13.534;2022-07-09T08:08:04;22.60;99.90
30053;DHT22;17074;52.478;13.534;2022-07-09T08:10:29;22.60;99.90
30053;DHT22;17074;52.478;13.534;2022-07-09T08:12:55;22.50;99.90
30053;DHT22;17074;52.478;13.534;2022-07-09T08:15:21;22.50;99.90
30053;DHT22;17074;52.478;13.534;2022-07-09T08:17:46;22.30;99.90
30053;DHT22;17074;52.478;13.534;2022-07-09T08:20:12;22.00;99.90
30053;DHT22;17074;52.478;13.534;2022-07-09T08:22:38;21.70;99.90
30053;DHT22;17074;52.478;13.534;2022-07-09T08:25:04;21.50;99.90
30053;DHT22;17074;52.478;13.534;2022-07-09T08:27:30;21.30;99.90
30053;DHT22;17074;52.478;13.534;2022-07-09T08:29:55;21.10;99.90
30053;DHT22;17074;52.478;13.534;2022-07-09T08:32:21;21.00;99.90
30053;DHT22;17074;52.478;13.534;2022-07-09T08:34:47;21.00;99.90
30053;DHT22;17074;52.478;13.534;2022-07-09T08:37:13;21.10;99.90
30053;DHT22;17074;52.478;13.534;2022-07-09T08:39:38;21.40;99.90
30053;DHT22;17074;52.478;13.534;2022-07-09T08:42:08;21.80;99.90
30053;DHT22;17074;52.478;13.534;2022-07-09T08:44:38;22.00;99.90
30053;DHT22;17074;52.478;13.534;2022-07-09T08:47:05;22.30;99.90
30053;DHT22;17074;52.478;13.534;2022-07-09T08:49:31;22.50;99.90
30053;DHT22;17074;52.478;13.534;2022-07-09T08:51:58;22.70;99.90
30053;DHT22;17074;52.478;13.534;2022-07-09T08:54:24;22.80;99.90
30053;DHT22;17074;52.478;13.534;2022-07-09T08:56:53;22.80;99.90
30053;DHT22;17074;52.478;13.534;2022-07-09T08:59:19;22.90;99.90
30053;DHT22;17074;52.478;13.534;2022-07-09T09:01:45;23.00;99.90
30053;DHT22;17074;52.478;13.534;2022-07-09T09:04:11;23.20;99.90
30053;DHT22;17074;52.478;13.534;2022-07-09T09:06:39;23.30;99.90
30053;DHT22;17074;52.478;13.534;2022-07-09T09:09:08;23.40;99.90
30053;DHT22;17074;52.478;13.534;2022-07-09T09:11:34;23.40;99.90
30053;DHT22;17074;52.478;13.534;2022-07-09T09:14:02;23.30;99.90
30053;DHT22;17074;52.478;13.534;2022-07-09T09:16:28;23.10;99.90
30053;DHT22;17074;52.478;13.534;2022-07-09T09:18:55;23.00;99.90
30053;DHT22;17074;52.478;13.534;2022-07-09T09:21:23;22.70;99.90
30053;DHT22;17074;52.478;13.534;2022-07-09T09:23:51;22.30;99.90
30053;DHT22;17074;52.478;13.534;2022-07-09T09:26:22;22.00;99.90
30053;DHT22;17074;52.478;13.534;2022-07-09T09:29:00;21.60;99.90
30053;DHT22;17074;52.478;13.534;2022-07-09T09:31:34;21.60;99.90
30053;DHT22;17074;52.478;13.534;2022-07-09T09:41:46;21.40;99.90
30053;DHT22;17074;52.478;13.534;2022-07-09T09:44:32;21.20;99.90
30053;DHT22;17074;52.478;13.534;2022-07-09T09:47:04;21.10;99.90
30053;DHT22;17074;52.478;13.534;2022-07-09T09:49:30;21.10;99.90
30053;DHT22;17074;52.478;13.534;2022-07-09T09:52:09;21.20;99.90
30053;DHT22;17074;52.478;13.534;2022-07-09T09:54:39;21.20;99.90
30053;DHT22;17074;52.478;13.534;2022-07-09T09:57:11;20.80;99.90
30053;DHT22;17074;52.478;13.534;2022-07-09T09:59:43;20.50;99.90
30053;DHT22;17074;52.478;13.534;2022-07-09T10:02:12;20.40;99.90
30053;DHT22;17074;52.478;13.534;2022-07-09T10:04:41;20.70;99.90
30053;DHT22;17074;52.478;13.534;2022-07-09T10:07:09;21.00;99.90
30053;DHT22;17074;52.478;13.534;2022-07-09T10:09:35;21.20;99.90
30053;DHT22;17074;52.478;13.534;2022-07-09T10:12:01;21.50;99.90
30053;DHT22;17074;52.478;13.534;2022-07-09T10:16:53;22.20;99.90
30053;DHT22;17074;52.478;13.534;2022-07-09T10:19:24;22.60;99.90
30053;DHT22;17074;52.478;13.534;2022-07-09T10:21:52;22.80;99.90
30053;DHT22;17074;52.478;13.534;2022-07-09T10:24:24;23.10;99.90
30053;DHT22;17074;52.478;13.534;2022-07-09T10:26:51;23.40;99.90
30053;DHT22;17074;52.478;13.534;2022-07-09T10:29:25;23.30;99.90
30053;DHT22;17074;52.478;13.534;2022-07-09T10:31:54;23.20;99.90
30053;DHT22;17074;52.478;13.534;2022-07-09T10:37:10;23.60;99.90
30053;DHT22;17074;52.478;13.534;2022-07-09T10:46:37;24.30;99.90
30053;DHT22;17074;52.478;13.534;2022-07-09T10:49:03;24.30;99.90
30053;DHT22;17074;52.478;13.534;2022-07-09T10:51:29;24.30;99.90
30053;DHT22;17074;52.478;13.534;2022-07-09T10:53:56;24.50;99.90
30053;DHT22;17074;52.478;13.534;2022-07-09T10:56:22;24.60;99.90
30053;DHT22;17074;52.478;13.534;2022-07-09T10:58:49;24.60;99.90
30053;DHT22;17074;52.478;13.534;2022-07-09T11:01:24;24.80;99.90
30053;DHT22;17074;52.478;13.534;2022-07-09T11:03:52;24.80;99.90
30053;DHT22;17074;52.478;13.534;2022-07-09T11:06:19;24.60;99.90
30053;DHT22;17074;52.478;13.534;2022-07-09T11:08:45;24.60;99.90
30053;DHT22;17074;52.478;13.534;2022-07-09T11:11:10;24.40;99.90
30053;DHT22;17074;52.478;13.534;2022-07-09T11:13:36;24.10;99.90
30053;DHT22;17074;52.478;13.534;2022-07-09T11:16:03;24.00;99.90
30053;DHT22;17074;52.478;13.534;2022-07-09T11:18:30;23.80;99.90
30053;DHT22;17074;52.478;13.534;2022-07-09T11:20:56;23.70;99.90
30053;DHT22;17074;52.478;13.534;2022-07-09T11:23:21;23.70;99.90
30053;DHT22;17074;52.478;13.534;2022-07-09T11:25:47;24.00;99.90
30053;DHT22;17074;52.478;13.534;2022-07-09T11:28:23;24.30;99.90
30053;DHT22;17074;52.478;13.534;2022-07-09T11:31:03;24.40;99.90
30053;DHT22;17074;52.478;13.534;2022-07-09T11:33:29;24.50;99.90
30053;DHT22;17074;52.478;13.534;2022-07-09T11:36:16;24.50;99.90
30053;DHT22;17074;52.478;13.534;2022-07-09T11:38:52;24.50;99.90
30053;DHT22;17074;52.478;13.534;2022-07-09T11:41:18;24.30;99.90
30053;DHT22;17074;52.478;13.534;2022-07-09T11:43:51;24.20;99.90
30053;DHT22;17074;52.478;13.534;2022-07-09T11:46:20;24.50;99.90
30053;DHT22;17074;52.478;13.534;2022-07-09T11:48:53;24.70;99.90
30053;DHT22;17074;52.478;13.534;2022-07-09T11:51:32;24.70;99.90
30053;DHT22;17074;52.478;13.534;2022-07-09T11:54:01;24.60;99.90
30053;DHT22;17074;52.478;13.534;2022-07-09T11:56:38;24.30;99.90
30053;DHT22;17074;52.478;13.534;2022-07-09T11:59:04;24.30;99.90
30053;DHT22;17074;52.478;13.534;2022-07-09T12:01:30;24.50;99.90
30053;DHT22;17074;52.478;13.534;2022-07-09T12:03:55;24.60;99.90
30053;DHT22;17074;52.478;13.534;2022-07-09T12:06:22;24.80;99.90
30053;DHT22;17074;52.478;13.534;2022-07-09T12:09:01;25.10;99.90
30053;DHT22;17074;52.478;13.534;2022-07-09T12:11:28;25.30;99.90
30053;DHT22;17074;52.478;13.534;2022-07-09T12:13:54;25.20;99.90
30053;DHT22;17074;52.478;13.534;2022-07-09T12:16:20;25.20;99.90
30053;DHT22;17074;52.478;13.534;2022-07-09T12:18:46;24.90;99.90
30053;DHT22;17074;52.478;13.534;2022-07-09T12:21:11;24.60;99.90
30053;DHT22;17074;52.478;13.534;2022-07-09T12:23:37;24.40;99.90
30053;DHT22;17074;52.478;13.534;2022-07-09T12:26:03;24.40;99.90
30053;DHT22;17074;52.478;13.534;2022-07-09T12:28:28;24.30;99.90
30053;DHT22;17074;52.478;13.534;2022-07-09T12:30:54;24.30;99.90
30053;DHT22;17074;52.478;13.534;2022-07-09T12:33:19;24.00;99.90
30053;DHT22;17074;52.478;13.534;2022-07-09T12:35:45;24.00;99.90
30053;DHT22;17074;52.478;13.534;2022-07-09T12:38:10;23.90;99.90
30053;DHT22;17074;52.478;13.534;2022-07-09T12:40:36;23.80;99.90
30053;DHT22;17074;52.478;13.534;2022-07-09T12:43:02;23.60;99.90
30053;DHT22;17074;52.478;13.534;2022-07-09T12:45:27;23.50;99.90
30053;DHT22;17074;52.478;13.534;2022-07-09T12:47:53;23.30;99.90
30053;DHT22;17074;52.478;13.534;2022-07-09T12:50:18;23.20;99.90
30053;DHT22;17074;52.478;13.534;2022-07-09T12:52:44;23.30;99.90
30053;DHT22;17074;52.478;13.534;2022-07-09T12:55:11;23.30;99.90
30053;DHT22;17074;52.478;13.534;2022-07-09T12:57:36;23.40;99.90
30053;DHT22;17074;52.478;13.534;2022-07-09T13:00:04;23.50;99.90
30053;DHT22;17074;52.478;13.534;2022-07-09T13:02:30;23.30;99.90
30053;DHT22;17074;52.478;13.534;2022-07-09T13:04:55;22.70;99.90
30053;DHT22;17074;52.478;13.534;2022-07-09T13:07:21;22.30;99.90
30053;DHT22;17074;52.478;13.534;2022-07-09T13:09:47;22.40;99.90
30053;DHT22;17074;52.478;13.534;2022-07-09T13:12:13;22.50;99.90
30053;DHT22;17074;52.478;13.534;2022-07-09T13:14:38;22.50;99.90
30053;DHT22;17074;52.478;13.534;2022-07-09T13:17:04;22.50;99.90
30053;DHT22;17074;52.478;13.534;2022-07-09T13:19:30;22.60;99.90
30053;DHT22;17074;52.478;13.534;2022-07-09T13:21:55;22.60;99.90
30053;DHT22;17074;52.478;13.534;2022-07-09T13:24:21;22.70;99.90
30053;DHT22;17074;52.478;13.534;2022-07-09T13:26:46;22.70;99.90
30053;DHT22;17074;52.478;13.534;2022-07-09T13:29:12;22.70;99.90
30053;DHT22;17074;52.478;13.534;2022-07-09T13:31:38;22.80;99.90
30053;DHT22;17074;52.478;13.534;2022-07-09T13:34:03;23.00;99.90
30053;DHT22;17074;52.478;13.534;2022-07-09T13:36:29;23.20;99.90
30053;DHT22;17074;52.478;13.534;2022-07-09T13:38:55;23.50;99.90
30053;DHT22;17074;52.478;13.534;2022-07-09T13:41:21;23.60;99.90
30053;DHT22;17074;52.478;13.534;2022-07-09T13:43:46;23.80;99.90
30053;DHT22;17074;52.478;13.534;2022-07-09T13:46:12;23.80;99.90
30053;DHT22;17074;52.478;13.534;2022-07-09T13:48:38;23.90;99.90
30053;DHT22;17074;52.478;13.534;2022-07-09T13:51:04;24.00;99.90
30053;DHT22;17074;52.478;13.534;2022-07-09T13:53:30;23.90;99.90
30053;DHT22;17074;52.478;13.534;2022-07-09T13:55:57;23.60;99.90
30053;DHT22;17074;52.478;13.534;2022-07-09T13:58:23;23.60;99.90
30053;DHT22;17074;52.478;13.534;2022-07-09T14:00:49;23.70;99.90
30053;DHT22;17074;52.478;13.534;2022-07-09T14:03:15;23.80;99.90
30053;DHT22;17074;52.478;13.534;2022-07-09T14:05:40;23.90;99.90
30053;DHT22;17074;52.478;13.534;2022-07-09T14:08:06;23.90;99.90
30053;DHT22;17074;52.478;13.534;2022-07-09T14:10:33;23.80;99.90
30053;DHT22;17074;52.478;13.534;2022-07-09T14:12:59;23.80;99.90
30053;DHT22;17074;52.478;13.534;2022-07-09T14:15:25;23.80;99.90
30053;DHT22;17074;52.478;13.534;2022-07-09T14:17:50;23.80;99.90
30053;DHT22;17074;52.478;13.534;2022-07-09T14:20:16;23.90;99.90
30053;DHT22;17074;52.478;13.534;2022-07-09T14:22:42;24.10;99.90
30053;DHT22;17074;52.478;13.534;2022-07-09T14:25:07;24.20;99.90
30053;DHT22;17074;52.478;13.534;2022-07-09T14:27:33;24.30;99.90
30053;DHT22;17074;52.478;13.534;2022-07-09T14:29:59;24.40;99.90
30053;DHT22;17074;52.478;13.534;2022-07-09T14:32:24;24.50;99.90
30053;DHT22;17074;52.478;13.534;2022-07-09T14:34:50;24.40;99.90
30053;DHT22;17074;52.478;13.534;2022-07-09T14:37:15;24.30;99.90
30053;DHT22;17074;52.478;13.534;2022-07-09T14:39:41;24.10;99.90
30053;DHT22;17074;52.478;13.534;2022-07-09T14:42:07;24.20;99.90
30053;DHT22;17074;52.478;13.534;2022-07-09T14:44:33;24.20;99.90
30053;DHT22;17074;52.478;13.534;2022-07-09T14:46:59;24.00;99.90
30053;DHT22;17074;52.478;13.534;2022-07-09T14:49:26;23.90;99.90
30053;DHT22;17074;52.478;13.534;2022-07-09T14:51:52;23.90;99.90
30053;DHT22;17074;52.478;13.534;2022-07-09T14:54:18;23.70;99.90
30053;DHT22;17074;52.478;13.534;2022-07-09T14:56:44;23.60;99.90
30053;DHT22;17074;52.478;13.534;2022-07-09T14:59:09;23.40;99.90
30053;DHT22;17074;52.478;13.534;2022-07-09T15:01:36;23.40;99.90
30053;DHT22;17074;52.478;13.534;2022-07-09T15:04:02;23.50;99.90
30053;DHT22;17074;52.478;13.534;2022-07-09T15:06:28;23.50;99.90
30053;DHT22;17074;52.478;13.534;2022-07-09T15:08:53;23.50;99.90
30053;DHT22;17074;52.478;13.534;2022-07-09T15:11:19;23.50;99.90
30053;DHT22;17074;52.478;13.534;2022-07-09T15:13:44;23.70;99.90
30053;DHT22;17074;52.478;13.534;2022-07-09T15:16:10;23.90;99.90
30053;DHT22;17074;52.478;13.534;2022-07-09T15:18:35;24.10;99.90
30053;DHT22;17074;52.478;13.534;2022-07-09T15:21:02;24.00;99.90
30053;DHT22;17074;52.478;13.534;2022-07-09T15:23:27;23.90;99.90
30053;DHT22;17074;52.478;13.534;2022-07-09T15:25:53;23.70;99.90
30053;DHT22;17074;52.478;13.534;2022-07-09T15:28:19;23.40;99.90
30053;DHT22;17074;52.478;13.534;2022-07-09T15:30:44;23.10;99.90
30053;DHT22;17074;52.478;13.534;2022-07-09T15:33:10;22.90;99.90
30053;DHT22;17074;52.478;13.534;2022-07-09T15:35:37;22.90;99.90
30053;DHT22;17074;52.478;13.534;2022-07-09T15:41:25;23.00;99.90
30053;DHT22;17074;52.478;13.534;2022-07-09T15:43:52;22.90;99.90
30053;DHT22;17074;52.478;13.534;2022-07-09T15:46:17;22.90;99.90